Aérodrome :
LOGIN :

S'inscrire | Disclaimer

   EN    FR    IT 

 










Légende :    VFR   VFR Marginal   IFR   IFR Intensif   IFR Très Intensif
Visi : 
Plafond : 
>= 8 km
>= 3000ft
5 à 8 km
1000 à 3000 ft
1500m à 5 km
500 à 1000 ft
800 à 1500m
200 à 500 ft
< 800m
< 200 ft
Symboles :   Orages  Brouillard  Fortes neiges  Fortes précipitations  Vent > 20 kt
SIGMETs :   Divers  Orages  Givrage  Turbulence  Onde Orograph.  Cendres Volcan.







- Altitude de l'aérodrome : 604 ft
- Code IATA : LCJ


EPLL - Lodz

DERNIER METAR :
  • 211830Z 26013KT 4000 -RA BR OVC004 05/05 Q1019

METARs EXPIRÉS :
  • 211800Z 26012KT 4200 -RA BR BKN004 05/05 Q1019
  • 211730Z 26012KT 3200 -RA BR BKN004 05/05 Q1019
  • 211700Z 25012KT 4000 -RA BR BKN006 05/04 Q1019
  • 211630Z 26012KT 4000 -RA BR BKN007 05/04 Q1019
  • 211600Z 26012KT 4200 -RA BR FEW006 BKN009 05/04 Q1019
  • 211530Z 26015KT 3400 -RA BR SCT005 BKN010 05/04 Q1020

TAF TAF EPLL
Valide du 21 à 18h jusqu'au 22 à 18h UTC


211730Z 2118/2218 26012KT 5000 -RA BR BKN007
TEMPO 2118/2124 3000 RA BR BKN004
BECMG 2123/2202 06012KT
TEMPO 2200/2204 2000 SNRA SN BR BKN003
PROB40
TEMPO 2201/2212 05015G26KT
BECMG 2204/2207 CAVOK
Pas de NOTAMs connus pour ce terrain.



MET'MAP, la Météo Aéronautique d'un coup d'oeil ! - Copyright ORBIFLY Décembre 2007 - Disclaimer

ORBIFLY MET'MAP TEAM :

Programmation & Développement : Alexandra Zaïnal
Conception & Développement : Baudouin d'Aumeries
Co-Programmation & Développement : Marc-Olivier Méhu
Soutien technique & logistique : Manuel Goepfert

Contact : metmap@orbifly.com




SOURCES & CREDITS :

   NOAA